createdAt,value
2022-08-28T00:00:29.618Z,14.30
2022-08-28T00:02:58.221Z,16.95
2022-08-28T00:05:29.454Z,16.67
2022-08-28T00:07:58.087Z,16.95
2022-08-28T00:10:26.884Z,17.55
2022-08-28T00:12:57.407Z,15.75
2022-08-28T00:15:31.780Z,13.95
2022-08-28T00:17:59.975Z,15.80
2022-08-28T00:20:28.605Z,14.50
2022-08-28T00:22:56.523Z,16.25
2022-08-28T00:25:27.355Z,15.38
2022-08-28T00:27:57.439Z,14.15
2022-08-28T00:30:30.186Z,17.17
2022-08-28T00:33:01.281Z,14.77
2022-08-28T00:35:29.586Z,16.35
2022-08-28T00:37:57.941Z,16.95
2022-08-28T00:40:32.414Z,15.05
2022-08-28T00:43:01.768Z,15.82
2022-08-28T00:45:36.003Z,14.65
2022-08-28T00:48:06.741Z,14.63
2022-08-28T00:51:00.414Z,15.50
2022-08-28T00:56:00.829Z,13.48
2022-08-28T00:58:28.519Z,14.65
2022-08-28T01:00:57.545Z,16.33
2022-08-28T01:03:26.543Z,13.20
2022-08-28T01:05:54.699Z,14.30
2022-08-28T01:08:23.038Z,14.63
2022-08-28T01:10:56.521Z,15.90
2022-08-28T01:13:26.769Z,14.80
2022-08-28T01:15:55.652Z,15.70
2022-08-28T01:18:26.058Z,17.38
2022-08-28T01:21:00.539Z,15.15
2022-08-28T01:23:45.674Z,16.25
2022-08-28T01:26:13.358Z,16.80
2022-08-28T01:28:41.315Z,17.52
2022-08-28T01:31:11.339Z,15.95
2022-08-28T01:33:41.368Z,18.05
2022-08-28T01:36:12.107Z,16.13
2022-08-28T01:38:40.328Z,17.50
2022-08-28T01:41:09.715Z,18.25
2022-08-28T01:43:37.445Z,18.02
2022-08-28T01:46:06.415Z,18.35
2022-08-28T01:48:36.798Z,18.83
2022-08-28T01:51:05.844Z,18.17
2022-08-28T01:53:34.740Z,17.73
2022-08-28T01:56:05.488Z,17.00
2022-08-28T01:58:38.274Z,18.27
2022-08-28T02:01:10.717Z,16.83
2022-08-28T02:03:38.629Z,20.80
2022-08-28T02:06:07.032Z,19.88
2022-08-28T02:08:34.689Z,21.02
2022-08-28T02:11:02.324Z,19.10
2022-08-28T02:13:29.987Z,17.67
2022-08-28T02:15:59.476Z,18.67
2022-08-28T02:18:27.216Z,17.38
2022-08-28T02:20:54.865Z,18.60
2022-08-28T02:23:22.870Z,19.13
2022-08-28T02:25:50.785Z,18.42
2022-08-28T02:28:18.586Z,18.02
2022-08-28T02:30:46.445Z,16.25
2022-08-28T02:33:16.074Z,20.02
2022-08-28T02:35:44.321Z,15.90
2022-08-28T02:38:12.123Z,16.80
2022-08-28T02:40:41.182Z,16.08
2022-08-28T02:43:08.861Z,15.30
2022-08-28T02:45:37.020Z,15.77
2022-08-28T02:48:05.373Z,16.27
2022-08-28T02:50:46.125Z,17.92
2022-08-28T02:53:14.460Z,17.05
2022-08-28T02:55:42.115Z,16.00
2022-08-28T02:58:10.109Z,16.67
2022-08-28T03:00:37.768Z,16.00
2022-08-28T03:03:05.511Z,16.95
2022-08-28T03:05:33.103Z,15.90
2022-08-28T03:08:02.090Z,16.05
2022-08-28T03:10:29.693Z,16.02
2022-08-28T03:12:57.376Z,14.27
2022-08-28T03:15:25.095Z,14.00
2022-08-28T03:17:52.745Z,13.15
2022-08-28T03:20:20.566Z,12.45
2022-08-28T03:23:07.898Z,12.10
2022-08-28T03:25:37.042Z,12.20
2022-08-28T03:28:05.012Z,11.80
2022-08-28T03:30:32.771Z,10.88
2022-08-28T03:33:01.072Z,10.90
2022-08-28T03:35:28.750Z,10.88
2022-08-28T03:37:56.355Z,11.43
2022-08-28T03:40:24.528Z,12.13
2022-08-28T03:42:53.796Z,10.95
2022-08-28T03:45:22.286Z,10.23
2022-08-28T03:47:50.852Z,10.05
2022-08-28T03:50:19.799Z,10.90
2022-08-28T03:52:47.678Z,10.18
2022-08-28T03:55:15.750Z,9.40
2022-08-28T03:57:43.473Z,9.80
2022-08-28T04:00:14.353Z,9.07
2022-08-28T04:02:42.502Z,9.20
2022-08-28T04:05:11.206Z,8.52
2022-08-28T04:07:39.379Z,8.43
2022-08-28T04:10:08.444Z,8.55
2022-08-28T04:12:37.092Z,8.40
2022-08-28T04:15:07.124Z,8.52
2022-08-28T04:17:38.591Z,9.20
2022-08-28T04:20:07.778Z,8.85
2022-08-28T04:22:37.097Z,8.98
2022-08-28T04:25:05.398Z,8.23
2022-08-28T04:27:33.106Z,8.73
2022-08-28T04:30:00.924Z,8.57
2022-08-28T04:32:28.888Z,8.55
2022-08-28T04:34:57.826Z,8.45
2022-08-28T04:37:25.468Z,7.97
2022-08-28T04:39:55.752Z,8.73
2022-08-28T04:42:23.521Z,7.95
2022-08-28T04:44:51.332Z,8.23
2022-08-28T04:47:18.969Z,8.27
2022-08-28T04:49:46.595Z,6.85
2022-08-28T04:52:15.601Z,8.07
2022-08-28T04:54:43.177Z,7.40
2022-08-28T04:57:10.785Z,8.93
2022-08-28T04:59:39.062Z,8.98
2022-08-28T05:02:06.752Z,9.02
2022-08-28T05:04:34.432Z,7.85
2022-08-28T05:07:02.149Z,8.40
2022-08-28T05:09:31.803Z,7.10
2022-08-28T05:12:03.723Z,8.27
2022-08-28T05:14:31.536Z,8.52
2022-08-28T05:16:59.834Z,7.55
2022-08-28T05:19:28.998Z,8.73
2022-08-28T05:21:56.645Z,8.73
2022-08-28T05:24:24.326Z,9.18
2022-08-28T05:26:53.300Z,9.20
2022-08-28T05:29:21.068Z,10.20
2022-08-28T05:31:52.953Z,7.72
2022-08-28T05:34:21.713Z,7.95
2022-08-28T05:36:49.386Z,7.95
2022-08-28T05:39:18.280Z,7.18
2022-08-28T05:41:46.536Z,8.90
2022-08-28T05:44:17.805Z,7.75
2022-08-28T05:46:48.402Z,7.13
2022-08-28T05:49:17.709Z,7.85
2022-08-28T05:51:45.456Z,7.90
2022-08-28T05:54:14.796Z,8.05
2022-08-28T05:56:44.120Z,8.40
2022-08-28T05:59:13.410Z,7.80
2022-08-28T06:01:45.573Z,8.13
2022-08-28T06:04:17.539Z,7.78
2022-08-28T06:06:46.113Z,8.25
2022-08-28T06:09:15.881Z,10.43
2022-08-28T06:11:46.241Z,8.48
2022-08-28T06:14:16.532Z,8.88
2022-08-28T06:16:49.495Z,7.68
2022-08-28T06:19:18.883Z,8.82
2022-08-28T06:21:48.159Z,9.75
2022-08-28T06:24:15.974Z,7.43
2022-08-28T06:26:43.630Z,7.15
2022-08-28T06:29:13.670Z,7.60
2022-08-28T06:31:41.354Z,8.30
2022-08-28T06:34:10.570Z,8.43
2022-08-28T06:36:41.675Z,6.35
2022-08-28T06:39:11.043Z,8.38
2022-08-28T06:41:42.825Z,9.82
2022-08-28T06:44:12.385Z,8.68
2022-08-28T06:46:40.960Z,9.30
2022-08-28T06:49:10.022Z,9.00
2022-08-28T06:51:38.313Z,10.80
2022-08-28T06:54:06.455Z,11.48
2022-08-28T06:56:34.523Z,7.72
2022-08-28T06:59:02.720Z,7.53
2022-08-28T07:01:32.944Z,12.48
2022-08-28T07:04:03.936Z,12.07
2022-08-28T07:06:35.380Z,13.82
2022-08-28T07:09:05.163Z,8.68
2022-08-28T07:11:34.516Z,12.60
2022-08-28T07:14:02.963Z,9.07
2022-08-28T07:16:33.085Z,6.50
2022-08-28T07:19:03.392Z,5.72
2022-08-28T07:21:31.901Z,9.35
2022-08-28T07:24:03.263Z,8.68
2022-08-28T07:26:30.942Z,6.05
2022-08-28T07:29:09.971Z,7.47
2022-08-28T07:31:40.680Z,9.18
2022-08-28T07:34:09.449Z,8.65
2022-08-28T07:36:37.373Z,8.00
2022-08-28T07:39:07.456Z,6.57
2022-08-28T07:41:39.095Z,10.05
2022-08-28T07:44:25.432Z,7.35
2022-08-28T07:46:54.931Z,7.18
2022-08-28T07:49:23.668Z,8.43
2022-08-28T07:51:54.218Z,9.23
2022-08-28T07:54:23.632Z,7.22
2022-08-28T07:56:52.585Z,6.50
2022-08-28T07:59:22.129Z,9.73
2022-08-28T08:01:52.145Z,6.05
2022-08-28T08:04:21.993Z,11.15
2022-08-28T08:06:55.622Z,10.38
2022-08-28T08:09:27.380Z,6.88
2022-08-28T08:11:57.265Z,7.10
2022-08-28T08:14:25.573Z,7.30
2022-08-28T08:16:53.409Z,7.00
2022-08-28T08:19:21.391Z,6.10
2022-08-28T08:21:53.280Z,6.25
2022-08-28T08:24:25.737Z,6.15
2022-08-28T08:26:59.624Z,5.80
2022-08-28T08:29:29.504Z,6.20
2022-08-28T08:31:58.760Z,7.25
2022-08-28T08:34:26.725Z,5.40
2022-08-28T08:36:55.074Z,7.28
2022-08-28T08:39:22.689Z,6.60
2022-08-28T08:41:53.026Z,6.53
2022-08-28T08:44:28.065Z,6.05
2022-08-28T08:47:14.083Z,6.40
2022-08-28T08:49:48.799Z,10.60
2022-08-28T08:52:28.997Z,7.53
2022-08-28T08:55:07.111Z,11.23
2022-08-28T08:57:37.623Z,6.00
2022-08-28T09:00:13.671Z,7.88
2022-08-28T09:02:49.288Z,5.80
2022-08-28T09:05:19.946Z,7.20
2022-08-28T09:07:56.584Z,10.60
2022-08-28T09:10:25.314Z,8.90
2022-08-28T09:12:58.695Z,8.45
2022-08-28T09:15:32.874Z,7.80
2022-08-28T09:18:11.656Z,5.32
2022-08-28T09:20:39.673Z,6.78
2022-08-28T09:23:12.730Z,4.97
2022-08-28T09:28:22.702Z,7.70
2022-08-28T09:31:04.902Z,5.90
2022-08-28T09:33:41.764Z,5.72
2022-08-28T09:36:32.704Z,6.10
2022-08-28T09:39:09.847Z,4.82
2022-08-28T09:42:11.933Z,6.13
2022-08-28T09:44:52.183Z,6.10
2022-08-28T09:47:48.680Z,6.35
2022-08-28T09:50:20.913Z,5.13
2022-08-28T09:52:48.946Z,5.53
2022-08-28T09:55:26.609Z,6.80
2022-08-28T09:57:55.340Z,6.38
2022-08-28T10:00:23.757Z,6.88
2022-08-28T10:03:03.296Z,6.97
2022-08-28T10:05:41.544Z,5.43
2022-08-28T10:08:27.396Z,6.53
2022-08-28T10:10:58.665Z,8.05
2022-08-28T10:13:31.448Z,7.68
2022-08-28T10:16:21.002Z,11.82
2022-08-28T10:18:56.334Z,9.23
2022-08-28T10:21:30.425Z,6.10
2022-08-28T10:24:27.444Z,11.90
2022-08-28T10:27:06.316Z,7.78
2022-08-28T10:29:45.447Z,6.80
2022-08-28T10:32:28.192Z,7.80
2022-08-28T10:35:06.909Z,8.33
2022-08-28T10:37:49.015Z,4.22
2022-08-28T10:40:24.339Z,6.05
2022-08-28T10:42:56.990Z,6.57
2022-08-28T10:45:26.649Z,7.10
2022-08-28T10:47:58.608Z,5.15
2022-08-28T10:50:31.008Z,8.15
2022-08-28T10:53:02.718Z,6.30
2022-08-28T10:55:36.817Z,7.18
2022-08-28T10:58:24.522Z,5.72
2022-08-28T11:00:56.133Z,6.57
2022-08-28T11:03:34.686Z,6.50
2022-08-28T11:06:11.300Z,5.40
2022-08-28T11:08:40.609Z,6.35
2022-08-28T11:11:14.368Z,5.95
2022-08-28T11:13:51.790Z,6.38
2022-08-28T11:16:22.923Z,5.43
2022-08-28T11:19:43.400Z,8.50
2022-08-28T11:22:16.835Z,6.18
2022-08-28T11:24:50.482Z,5.80
2022-08-28T11:27:26.877Z,6.93
2022-08-28T11:30:04.808Z,5.50
2022-08-28T11:32:58.365Z,6.00
2022-08-28T11:35:49.369Z,4.30
2022-08-28T11:38:52.962Z,7.32
2022-08-28T11:41:26.524Z,4.10
2022-08-28T11:44:29.025Z,4.13
2022-08-28T11:47:36.192Z,5.25
2022-08-28T11:50:12.749Z,6.22
2022-08-28T11:53:07.259Z,4.82
2022-08-28T11:55:51.488Z,7.70
2022-08-28T11:58:28.299Z,3.83
2022-08-28T12:01:04.387Z,7.97
2022-08-28T12:03:36.668Z,5.13
2022-08-28T12:06:05.196Z,4.03
2022-08-28T12:09:10.028Z,5.20
2022-08-28T12:12:05.475Z,4.70
2022-08-28T12:15:07.440Z,5.97
2022-08-28T12:17:47.964Z,3.53
2022-08-28T12:20:39.701Z,3.80
2022-08-28T12:23:39.438Z,3.95
2022-08-28T12:26:10.599Z,4.50
2022-08-28T12:28:47.526Z,3.90
2022-08-28T12:32:02.645Z,4.80
2022-08-28T12:35:02.050Z,4.68
2022-08-28T12:37:51.370Z,3.55
2022-08-28T12:40:24.581Z,3.95
2022-08-28T12:42:55.695Z,4.43
2022-08-28T12:45:27.809Z,3.58
2022-08-28T12:47:59.998Z,4.20
2022-08-28T12:50:32.969Z,4.97
2022-08-28T12:55:29.560Z,5.38
2022-08-28T12:57:57.315Z,3.42
2022-08-28T13:00:33.171Z,4.57
2022-08-28T13:03:01.554Z,4.38
2022-08-28T13:05:36.036Z,3.35
2022-08-28T13:08:07.032Z,3.88
2022-08-28T13:10:37.791Z,4.40
2022-08-28T13:13:08.474Z,3.05
2022-08-28T13:15:57.886Z,3.13
2022-08-28T13:18:45.313Z,3.92
2022-08-28T13:21:33.525Z,2.50
2022-08-28T13:24:42.730Z,5.00
2022-08-28T13:27:22.382Z,3.38
2022-08-28T13:30:00.085Z,3.90
2022-08-28T13:32:30.529Z,5.88
2022-08-28T13:35:24.738Z,3.28
2022-08-28T13:37:55.128Z,4.70
2022-08-28T13:40:55.611Z,3.33
2022-08-28T13:43:15.505Z,3.60
2022-08-28T13:45:48.113Z,3.40
2022-08-28T13:48:17.762Z,3.28
2022-08-28T13:50:47.606Z,3.10
2022-08-28T13:53:20.649Z,2.45
2022-08-28T13:55:50.117Z,3.75
2022-08-28T13:58:19.209Z,3.28
2022-08-28T14:00:48.759Z,3.33
2022-08-28T14:03:34.744Z,5.25
2022-08-28T14:06:03.461Z,2.25
2022-08-28T14:08:31.537Z,3.00
2022-08-28T14:10:59.387Z,3.03
2022-08-28T14:13:28.461Z,2.88
2022-08-28T14:15:57.469Z,3.50
2022-08-28T14:18:25.940Z,6.40
2022-08-28T14:20:53.916Z,2.80
2022-08-28T14:23:22.901Z,5.38
2022-08-28T14:25:50.769Z,3.15
2022-08-28T14:28:18.981Z,4.70
2022-08-28T14:30:50.420Z,4.88
2022-08-28T14:33:20.822Z,3.30
2022-08-28T14:35:49.735Z,4.65
2022-08-28T14:38:17.897Z,3.42
2022-08-28T14:40:46.202Z,2.97
2022-08-28T14:43:15.370Z,2.90
2022-08-28T14:45:45.021Z,5.00
2022-08-28T14:48:14.471Z,9.60
2022-08-28T14:50:43.874Z,4.68
2022-08-28T14:53:12.619Z,3.22
2022-08-28T14:55:42.061Z,4.68
2022-08-28T14:58:09.716Z,4.68
2022-08-28T15:00:42.104Z,5.50
2022-08-28T15:03:10.215Z,5.25
2022-08-28T15:05:39.279Z,3.03
2022-08-28T15:08:08.691Z,3.00
2022-08-28T15:10:38.671Z,3.20
2022-08-28T15:13:07.714Z,3.35
2022-08-28T15:15:36.545Z,3.13
2022-08-28T15:18:04.421Z,4.30
2022-08-28T15:20:32.588Z,2.90
2022-08-28T15:23:01.603Z,2.75
2022-08-28T15:25:29.222Z,4.05
2022-08-28T15:27:56.952Z,3.75
2022-08-28T15:30:24.557Z,2.72
2022-08-28T15:32:52.623Z,2.15
2022-08-28T15:35:20.321Z,2.60
2022-08-28T15:37:47.940Z,2.78
2022-08-28T15:40:34.715Z,4.13
2022-08-28T15:43:02.398Z,2.53
2022-08-28T15:45:30.156Z,3.15
2022-08-28T15:47:58.573Z,4.38
2022-08-28T15:50:26.353Z,2.38
2022-08-28T15:52:53.990Z,3.42
2022-08-28T15:55:23.472Z,2.72
2022-08-28T15:57:51.176Z,3.60
2022-08-28T16:00:19.061Z,2.88
2022-08-28T16:02:46.693Z,3.85
2022-08-28T16:05:14.420Z,4.30
2022-08-28T16:07:42.405Z,2.47
2022-08-28T16:10:13.301Z,3.08
2022-08-28T16:12:42.529Z,4.47
2022-08-28T16:15:12.216Z,5.22
2022-08-28T16:17:39.811Z,3.08
2022-08-28T16:20:12.374Z,3.05
2022-08-28T16:22:41.385Z,2.95
2022-08-28T16:25:10.633Z,2.78
2022-08-28T16:27:38.236Z,2.78
2022-08-28T16:30:15.891Z,3.85
2022-08-28T16:32:59.677Z,2.38
2022-08-28T16:35:27.352Z,6.65
2022-08-28T16:37:54.994Z,2.90
2022-08-28T16:40:23.392Z,2.75
2022-08-28T16:42:52.096Z,3.20
2022-08-28T16:45:21.567Z,4.07
2022-08-28T16:47:50.028Z,3.70
2022-08-28T16:50:19.308Z,3.10
2022-08-28T16:52:47.561Z,3.00
2022-08-28T16:55:15.332Z,2.90
2022-08-28T16:57:43.097Z,3.42
2022-08-28T17:00:13.644Z,2.80
2022-08-28T17:02:43.739Z,3.13
2022-08-28T17:05:12.122Z,2.97
2022-08-28T17:07:40.947Z,2.63
2022-08-28T17:10:10.404Z,2.33
2022-08-28T17:12:38.322Z,4.20
2022-08-28T17:15:07.268Z,2.70
2022-08-28T17:17:35.531Z,3.85
2022-08-28T17:20:07.717Z,4.13
2022-08-28T17:22:34.500Z,4.35
2022-08-28T17:25:07.434Z,2.75
2022-08-28T17:27:36.501Z,2.65
2022-08-28T17:30:05.442Z,4.28
2022-08-28T17:32:33.362Z,3.17
2022-08-28T17:35:05.325Z,2.60
2022-08-28T17:37:33.005Z,5.33
2022-08-28T17:40:00.693Z,5.22
2022-08-28T17:42:28.411Z,2.65
2022-08-28T17:44:56.077Z,5.32
2022-08-28T17:47:30.742Z,3.42
2022-08-28T17:49:59.583Z,3.60
2022-08-28T17:52:29.435Z,4.40
2022-08-28T17:54:57.268Z,3.25
2022-08-28T17:57:25.343Z,3.35
2022-08-28T17:59:52.996Z,5.05
2022-08-28T18:02:20.689Z,4.60
2022-08-28T18:04:48.382Z,5.93
2022-08-28T18:07:16.154Z,6.07
2022-08-28T18:09:45.144Z,6.93
2022-08-28T18:12:13.548Z,5.03
2022-08-28T18:14:41.362Z,6.10
2022-08-28T18:17:10.632Z,3.92
2022-08-28T18:19:39.956Z,4.70
2022-08-28T18:22:08.822Z,5.78
2022-08-28T18:24:36.637Z,5.47
2022-08-28T18:27:07.157Z,4.53
2022-08-28T18:29:35.030Z,4.63
2022-08-28T18:32:02.812Z,5.75
2022-08-28T18:34:32.852Z,3.92
2022-08-28T18:37:00.833Z,5.72
2022-08-28T18:39:29.825Z,5.20
2022-08-28T18:41:58.847Z,5.47
2022-08-28T18:44:27.841Z,5.68
2022-08-28T18:46:55.640Z,5.75
2022-08-28T18:49:23.413Z,6.05
2022-08-28T18:51:51.072Z,5.20
2022-08-28T18:54:20.551Z,5.30
2022-08-28T18:56:49.689Z,5.60
2022-08-28T18:59:18.594Z,4.55
2022-08-28T19:01:47.650Z,4.00
2022-08-28T19:04:15.334Z,4.28
2022-08-28T19:06:43.004Z,6.25
2022-08-28T19:09:20.185Z,5.80
2022-08-28T19:11:48.863Z,5.60
2022-08-28T19:14:16.548Z,6.38
2022-08-28T19:16:44.366Z,5.00
2022-08-28T19:19:15.608Z,4.50
2022-08-28T19:21:43.963Z,5.03
2022-08-28T19:24:11.869Z,5.40
2022-08-28T19:26:39.562Z,5.63
2022-08-28T19:29:07.228Z,5.88
2022-08-28T19:31:37.979Z,6.38
2022-08-28T19:34:07.018Z,5.75
2022-08-28T19:36:36.960Z,6.57
2022-08-28T19:39:04.951Z,5.15
2022-08-28T19:41:36.756Z,5.97
2022-08-28T19:44:05.029Z,5.35
2022-08-28T19:46:34.192Z,5.00
2022-08-28T19:49:03.372Z,4.65
2022-08-28T19:51:31.480Z,5.68
2022-08-28T19:54:00.520Z,4.55
2022-08-28T19:56:29.671Z,5.75
2022-08-28T19:58:59.079Z,7.43
2022-08-28T20:01:29.376Z,5.00
2022-08-28T20:03:57.972Z,6.93
2022-08-28T20:06:25.742Z,6.38
2022-08-28T20:08:53.307Z,4.93
2022-08-28T20:11:24.980Z,6.75
2022-08-28T20:13:53.071Z,9.93
2022-08-28T20:16:21.404Z,9.13
2022-08-28T20:18:50.288Z,9.18
2022-08-28T20:21:36.886Z,6.93
2022-08-28T20:24:07.341Z,9.95
2022-08-28T20:26:36.373Z,8.32
2022-08-28T20:29:04.228Z,5.85
2022-08-28T20:31:31.933Z,9.30
2022-08-28T20:33:59.591Z,6.55
2022-08-28T20:36:27.446Z,7.13
2022-08-28T20:38:55.349Z,4.47
2022-08-28T20:41:23.169Z,5.70
2022-08-28T20:43:52.291Z,7.07
2022-08-28T20:46:20.136Z,8.98
2022-08-28T20:48:47.945Z,5.10
2022-08-28T20:51:15.640Z,5.82
2022-08-28T20:53:43.272Z,5.40
2022-08-28T20:56:11.280Z,5.47
2022-08-28T20:58:39.684Z,6.70
2022-08-28T21:01:08.690Z,10.10
2022-08-28T21:03:36.434Z,7.15
2022-08-28T21:06:04.041Z,6.75
2022-08-28T21:08:31.680Z,5.20
2022-08-28T21:10:59.309Z,10.85
2022-08-28T21:13:27.116Z,5.97
2022-08-28T21:15:54.772Z,14.35
2022-08-28T21:18:23.712Z,10.10
2022-08-28T21:20:51.405Z,11.10
2022-08-28T21:23:19.695Z,11.00
2022-08-28T21:25:48.280Z,6.95
2022-08-28T21:28:16.015Z,5.78
2022-08-28T21:30:43.753Z,6.13
2022-08-28T21:33:11.976Z,7.07
2022-08-28T21:35:42.441Z,10.70
2022-08-28T21:38:10.088Z,7.38
2022-08-28T21:40:37.762Z,7.53
2022-08-28T21:43:05.428Z,7.32
2022-08-28T21:45:33.077Z,5.75
2022-08-28T21:48:00.925Z,6.70
2022-08-28T21:50:29.027Z,7.20
2022-08-28T21:52:58.027Z,10.40
2022-08-28T21:55:25.912Z,23.02
2022-08-28T21:57:53.544Z,11.70
2022-08-28T22:00:24.181Z,7.07
2022-08-28T22:02:52.229Z,7.85
2022-08-28T22:05:20.352Z,8.75
2022-08-28T22:07:48.125Z,5.55
2022-08-28T22:10:17.321Z,6.32
2022-08-28T22:12:44.961Z,6.03
2022-08-28T22:15:13.049Z,6.40
2022-08-28T22:17:40.830Z,7.45
2022-08-28T22:20:09.765Z,7.35
2022-08-28T22:22:54.716Z,7.72
2022-08-28T22:25:24.004Z,6.15
2022-08-28T22:27:51.610Z,9.27
2022-08-28T22:30:19.608Z,8.35
2022-08-28T22:32:47.223Z,8.18
2022-08-28T22:35:14.904Z,9.77
2022-08-28T22:37:42.841Z,6.90
2022-08-28T22:40:13.616Z,7.75
2022-08-28T22:42:43.515Z,7.00
2022-08-28T22:45:11.439Z,6.40
2022-08-28T22:47:39.531Z,6.72
2022-08-28T22:50:08.428Z,8.10
2022-08-28T22:52:37.084Z,6.97
2022-08-28T22:55:06.594Z,7.13
2022-08-28T22:57:34.304Z,6.38
2022-08-28T23:00:05.401Z,7.20
2022-08-28T23:02:33.097Z,10.23
2022-08-28T23:05:00.749Z,5.97
2022-08-28T23:07:28.388Z,6.10
2022-08-28T23:09:56.013Z,6.43
2022-08-28T23:12:24.006Z,8.75
2022-08-28T23:14:51.924Z,5.22
2022-08-28T23:17:20.908Z,5.20
2022-08-28T23:19:49.190Z,5.70
2022-08-28T23:22:17.935Z,6.53
2022-08-28T23:24:46.504Z,6.13
2022-08-28T23:27:35.489Z,7.82
2022-08-28T23:30:02.423Z,6.30
2022-08-28T23:32:31.347Z,7.75
2022-08-28T23:35:01.812Z,7.43
2022-08-28T23:37:29.517Z,6.75
2022-08-28T23:39:58.976Z,6.72
2022-08-28T23:42:28.488Z,7.35
2022-08-28T23:44:56.802Z,7.57
2022-08-28T23:47:24.434Z,7.47
2022-08-28T23:49:53.380Z,6.18
2022-08-28T23:52:20.986Z,10.23
2022-08-28T23:54:49.827Z,6.78
2022-08-28T23:57:17.815Z,5.88
2022-08-28T23:59:45.553Z,6.22
